createdAt,value
2022-12-31T00:03:54.719Z,7.90
2022-12-31T00:08:49.165Z,7.86
2022-12-31T00:13:43.265Z,7.83
2022-12-31T00:18:38.282Z,7.83
2022-12-31T00:28:36.704Z,7.86
2022-12-31T00:33:30.092Z,7.92
2022-12-31T00:38:25.062Z,7.90
2022-12-31T00:48:57.655Z,7.81
2022-12-31T01:23:43.050Z,7.83
2022-12-31T01:28:37.323Z,7.86
2022-12-31T01:33:30.718Z,7.79
2022-12-31T01:38:24.060Z,7.88
2022-12-31T01:43:21.782Z,7.86
2022-12-31T01:48:20.780Z,7.84
2022-12-31T01:53:16.614Z,7.81
2022-12-31T01:58:14.933Z,7.87
2022-12-31T04:00:31.351Z,9.82
2022-12-31T04:05:25.043Z,9.83
2022-12-31T04:10:20.102Z,9.89
2022-12-31T04:15:18.542Z,9.84
2022-12-31T04:20:14.174Z,9.84
2022-12-31T04:25:11.439Z,9.88
2022-12-31T04:30:05.939Z,9.96
2022-12-31T04:34:59.338Z,9.90
2022-12-31T04:39:54.042Z,9.88
2022-12-31T04:44:47.391Z,9.92
2022-12-31T04:49:40.708Z,9.92
2022-12-31T04:54:34.065Z,9.93
2022-12-31T04:59:29.011Z,9.98
2022-12-31T05:04:22.394Z,10.02
2022-12-31T05:09:15.683Z,10.09
2022-12-31T05:14:09.089Z,10.14
2022-12-31T05:19:06.445Z,10.31
2022-12-31T05:23:59.830Z,10.26
2022-12-31T05:28:53.276Z,10.09
2022-12-31T05:33:46.679Z,10.26
2022-12-31T05:38:41.460Z,10.15
2022-12-31T05:43:35.635Z,10.14
2022-12-31T05:48:29.188Z,10.18
2022-12-31T05:53:22.744Z,10.09
2022-12-31T05:58:18.460Z,10.09
2022-12-31T06:03:12.374Z,10.11
2022-12-31T06:08:06.374Z,10.17
2022-12-31T06:12:59.728Z,10.20
2022-12-31T06:17:54.626Z,10.21
2022-12-31T06:22:48.101Z,10.12
2022-12-31T06:27:41.587Z,10.21
2022-12-31T06:32:35.535Z,10.22
2022-12-31T06:37:30.321Z,10.34
2022-12-31T06:42:23.679Z,10.42
2022-12-31T06:47:17.116Z,10.47
2022-12-31T06:52:10.465Z,10.48
2022-12-31T06:57:06.485Z,10.39
2022-12-31T07:02:17.921Z,10.33
2022-12-31T07:07:22.314Z,10.29
2022-12-31T07:12:31.169Z,10.20
2022-12-31T07:17:33.166Z,10.14
2022-12-31T07:22:27.514Z,10.10
2022-12-31T07:27:54.206Z,10.12
2022-12-31T07:33:12.768Z,10.12
2022-12-31T07:38:05.851Z,10.03
2022-12-31T07:43:14.861Z,10.10
2022-12-31T08:01:41.215Z,9.73
2022-12-31T13:47:46.585Z,12.15
2022-12-31T17:11:39.278Z,9.68
2022-12-31T17:16:34.577Z,9.60
2022-12-31T17:21:32.641Z,9.47
2022-12-31T17:26:32.077Z,9.50
2022-12-31T17:31:38.281Z,9.53
2022-12-31T17:36:31.777Z,9.75
2022-12-31T17:41:28.605Z,9.66
2022-12-31T17:46:26.249Z,9.82
2022-12-31T17:51:24.635Z,9.95
2022-12-31T17:56:20.266Z,9.93
2022-12-31T18:01:17.960Z,9.85
2022-12-31T18:06:16.877Z,9.75
2022-12-31T18:30:48.356Z,9.45
2022-12-31T18:36:08.313Z,9.26
2022-12-31T18:40:59.421Z,9.23
2022-12-31T18:45:55.567Z,9.32
2022-12-31T18:50:49.939Z,9.33
2022-12-31T18:55:48.732Z,9.39
2022-12-31T19:00:42.338Z,9.35
2022-12-31T19:05:39.419Z,9.38
2022-12-31T19:10:33.054Z,9.50
2022-12-31T19:15:33.046Z,9.58
2022-12-31T19:20:26.682Z,9.61
2022-12-31T19:25:24.317Z,9.57
2022-12-31T19:30:22.470Z,9.68
2022-12-31T19:35:17.718Z,9.66
2022-12-31T19:40:17.151Z,9.65
2022-12-31T19:58:20.120Z,9.64
2022-12-31T20:03:15.044Z,9.67
2022-12-31T20:08:09.240Z,9.65
2022-12-31T20:13:02.694Z,9.65
2022-12-31T20:17:59.677Z,9.61
2022-12-31T20:55:32.534Z,8.65
2022-12-31T21:00:26.040Z,8.55
2022-12-31T21:05:19.682Z,8.48
2022-12-31T21:10:15.221Z,8.31
2022-12-31T21:15:11.702Z,8.42
2022-12-31T21:20:06.450Z,8.55
2022-12-31T21:25:01.167Z,8.29
2022-12-31T21:30:17.664Z,8.36
2022-12-31T21:40:23.992Z,8.39
2022-12-31T21:45:17.741Z,8.10
2022-12-31T21:50:12.575Z,8.06
2022-12-31T21:55:25.627Z,8.02
2022-12-31T22:00:44.211Z,8.12
2022-12-31T22:05:40.868Z,8.23
2022-12-31T22:10:37.262Z,8.13
2022-12-31T22:15:31.107Z,8.08
2022-12-31T22:20:28.483Z,8.18
2022-12-31T22:25:23.877Z,8.17
2022-12-31T22:30:20.187Z,8.20
2022-12-31T22:35:14.049Z,8.16
2022-12-31T22:40:08.947Z,8.16
2022-12-31T22:45:03.719Z,8.10
2022-12-31T22:49:57.086Z,8.14
2022-12-31T22:54:50.421Z,7.85
2022-12-31T22:59:43.950Z,7.81
2022-12-31T23:04:38.657Z,7.81
2022-12-31T23:09:49.404Z,7.64
2022-12-31T23:14:59.942Z,7.49
2022-12-31T23:20:12.070Z,7.75
2022-12-31T23:25:06.430Z,7.66
2022-12-31T23:29:59.836Z,7.44
2022-12-31T23:34:55.702Z,7.56
2022-12-31T23:39:49.032Z,7.57
